sensor_id;sensor_type;location;lat;lon;timestamp;pressure;altitude;pressure_sealevel;temperature;humidity
56038;BME280;41907;47.848;9.000;2023-05-14T00:00:10;95694.94;;;9.28;100.00
56038;BME280;41907;47.848;9.000;2023-05-14T00:02:35;95695.75;;;9.29;100.00
56038;BME280;41907;47.848;9.000;2023-05-14T00:05:00;95685.69;;;9.26;100.00
56038;BME280;41907;47.848;9.000;2023-05-14T00:07:25;95680.78;;;9.19;100.00
56038;BME280;41907;47.848;9.000;2023-05-14T00:09:54;95684.25;;;9.06;100.00
56038;BME280;41907;47.848;9.000;2023-05-14T00:12:20;95680.13;;;9.00;100.00
56038;BME280;41907;47.848;9.000;2023-05-14T00:14:45;95677.25;;;9.10;100.00
56038;BME280;41907;47.848;9.000;2023-05-14T00:17:10;95680.78;;;9.19;100.00
56038;BME280;41907;47.848;9.000;2023-05-14T00:19:35;95677.13;;;9.15;100.00
56038;BME280;41907;47.848;9.000;2023-05-14T00:22:00;95672.34;;;9.04;100.00
56038;BME280;41907;47.848;9.000;2023-05-14T00:24:26;95669.41;;;9.05;100.00
56038;BME280;41907;47.848;9.000;2023-05-14T00:26:51;95660.78;;;9.08;100.00
56038;BME280;41907;47.848;9.000;2023-05-14T00:29:16;95669.41;;;9.05;100.00
56038;BME280;41907;47.848;9.000;2023-05-14T00:31:42;95663.28;;;9.05;100.00
56038;BME280;41907;47.848;9.000;2023-05-14T00:34:07;95658.06;;;9.00;100.00
56038;BME280;41907;47.848;9.000;2023-05-14T00:36:32;95658.28;;;8.89;100.00
56038;BME280;41907;47.848;9.000;2023-05-14T00:38:57;95658.38;;;8.84;100.00
56038;BME280;41907;47.848;9.000;2023-05-14T00:41:23;95655.03;;;8.79;100.00
56038;BME280;41907;47.848;9.000;2023-05-14T00:43:48;95663.78;;;8.79;100.00
56038;BME280;41907;47.848;9.000;2023-05-14T00:46:13;95663.53;;;8.67;100.00
56038;BME280;41907;47.848;9.000;2023-05-14T00:48:39;95660.88;;;8.67;100.00
56038;BME280;41907;47.848;9.000;2023-05-14T00:51:04;95660.09;;;8.67;100.00
56038;BME280;41907;47.848;9.000;2023-05-14T00:53:30;95660.25;;;8.70;100.00
56038;BME280;41907;47.848;9.000;2023-05-14T00:55:56;95656.34;;;8.68;100.00
56038;BME280;41907;47.848;9.000;2023-05-14T00:58:21;95655.84;;;8.66;100.00
56038;BME280;41907;47.848;9.000;2023-05-14T01:00:46;95661.84;;;8.71;100.00
56038;BME280;41907;47.848;9.000;2023-05-14T01:03:12;95654.25;;;8.78;100.00
56038;BME280;41907;47.848;9.000;2023-05-14T01:08:05;95657.59;;;8.84;100.00
56038;BME280;41907;47.848;9.000;2023-05-14T01:10:48;95658.28;;;8.89;100.00
56038;BME280;41907;47.848;9.000;2023-05-14T01:13:24;95657.38;;;8.94;100.00
56038;BME280;41907;47.848;9.000;2023-05-14T01:15:50;95651.66;;;9.01;100.00
56038;BME280;41907;47.848;9.000;2023-05-14T01:18:17;95655.59;;;9.03;100.00
56038;BME280;41907;47.848;9.000;2023-05-14T01:20:44;95655.97;;;9.10;100.00
56038;BME280;41907;47.848;9.000;2023-05-14T01:23:09;95657.84;;;9.10;100.00
56038;BME280;41907;47.848;9.000;2023-05-14T01:25:36;95651.13;;;9.12;100.00
56038;BME280;41907;47.848;9.000;2023-05-14T01:28:21;95651.50;;;9.19;100.00
56038;BME280;41907;47.848;9.000;2023-05-14T01:30:56;95639.00;;;9.20;100.00
56038;BME280;41907;47.848;9.000;2023-05-14T01:33:23;95646.84;;;9.25;100.00
56038;BME280;41907;47.848;9.000;2023-05-14T01:35:49;95644.38;;;9.28;100.00
56038;BME280;41907;47.848;9.000;2023-05-14T01:38:17;95638.63;;;9.35;100.00
56038;BME280;41907;47.848;9.000;2023-05-14T01:40:43;95639.44;;;9.36;100.00
56038;BME280;41907;47.848;9.000;2023-05-14T01:43:09;95641.69;;;9.42;100.00
56038;BME280;41907;47.848;9.000;2023-05-14T01:45:35;95633.28;;;9.49;100.00
56038;BME280;41907;47.848;9.000;2023-05-14T01:48:01;95634.59;;;9.60;100.00
56038;BME280;41907;47.848;9.000;2023-05-14T01:50:26;95637.03;;;9.70;100.00
56038;BME280;41907;47.848;9.000;2023-05-14T01:52:51;95641.44;;;9.75;100.00
56038;BME280;41907;47.848;9.000;2023-05-14T01:55:20;95636.16;;;9.83;100.00
56038;BME280;41907;47.848;9.000;2023-05-14T01:57:46;95631.31;;;9.85;100.00
56038;BME280;41907;47.848;9.000;2023-05-14T02:00:11;95633.06;;;9.90;100.00
56038;BME280;41907;47.848;9.000;2023-05-14T02:02:36;95634.16;;;9.89;100.00
56038;BME280;41907;47.848;9.000;2023-05-14T02:05:02;95626.53;;;9.96;100.00
56038;BME280;41907;47.848;9.000;2023-05-14T02:07:27;95630.47;;;9.98;100.00
56038;BME280;41907;47.848;9.000;2023-05-14T02:09:52;95626.81;;;9.94;100.00
56038;BME280;41907;47.848;9.000;2023-05-14T02:12:17;95624.66;;;9.96;100.00
56038;BME280;41907;47.848;9.000;2023-05-14T02:14:43;95626.22;;;9.97;100.00
56038;BME280;41907;47.848;9.000;2023-05-14T02:17:08;95630.63;;;10.02;100.00
56038;BME280;41907;47.848;9.000;2023-05-14T02:19:33;95629.22;;;10.04;100.00
56038;BME280;41907;47.848;9.000;2023-05-14T02:21:58;95626.44;;;10.10;100.00
56038;BME280;41907;47.848;9.000;2023-05-14T02:24:25;95622.06;;;10.14;100.00
56038;BME280;41907;47.848;9.000;2023-05-14T02:26:50;95625.72;;;10.18;100.00
56038;BME280;41907;47.848;9.000;2023-05-14T02:29:15;95629.03;;;10.23;100.00
56038;BME280;41907;47.848;9.000;2023-05-14T02:31:40;95621.81;;;10.24;100.00
56038;BME280;41907;47.848;9.000;2023-05-14T02:34:06;95627.44;;;10.22;100.00
56038;BME280;41907;47.848;9.000;2023-05-14T02:36:31;95618.84;;;10.25;100.00
56038;BME280;41907;47.848;9.000;2023-05-14T02:38:57;95621.06;;;10.32;100.00
56038;BME280;41907;47.848;9.000;2023-05-14T02:41:22;95622.78;;;10.28;100.00
56038;BME280;41907;47.848;9.000;2023-05-14T02:43:47;95619.97;;;10.33;100.00
56038;BME280;41907;47.848;9.000;2023-05-14T02:46:13;95614.63;;;10.33;100.00
56038;BME280;41907;47.848;9.000;2023-05-14T02:48:38;95617.78;;;10.35;100.00
56038;BME280;41907;47.848;9.000;2023-05-14T02:51:03;95616.41;;;10.37;100.00
56038;BME280;41907;47.848;9.000;2023-05-14T02:53:28;95609.78;;;10.35;100.00
56038;BME280;41907;47.848;9.000;2023-05-14T02:55:54;95608.53;;;10.32;100.00
56038;BME280;41907;47.848;9.000;2023-05-14T02:58:19;95608.69;;;10.27;100.00
56038;BME280;41907;47.848;9.000;2023-05-14T03:00:44;95605.53;;;10.25;100.00
56038;BME280;41907;47.848;9.000;2023-05-14T03:03:09;95601.47;;;10.28;100.00
56038;BME280;41907;47.848;9.000;2023-05-14T03:05:34;95598.47;;;10.29;100.00
56038;BME280;41907;47.848;9.000;2023-05-14T03:08:00;95602.72;;;10.30;100.00
56038;BME280;41907;47.848;9.000;2023-05-14T03:10:25;95596.63;;;10.38;100.00
56038;BME280;41907;47.848;9.000;2023-05-14T03:12:50;95602.13;;;10.42;100.00
56038;BME280;41907;47.848;9.000;2023-05-14T03:15:15;95596.00;;;10.41;100.00
56038;BME280;41907;47.848;9.000;2023-05-14T03:17:41;95597.09;;;10.40;100.00
56038;BME280;41907;47.848;9.000;2023-05-14T03:20:06;95595.09;;;10.46;100.00
56038;BME280;41907;47.848;9.000;2023-05-14T03:22:31;95596.47;;;10.35;100.00
56038;BME280;41907;47.848;9.000;2023-05-14T03:24:56;95589.28;;;10.44;100.00
56038;BME280;41907;47.848;9.000;2023-05-14T03:27:22;95597.44;;;10.48;100.00
56038;BME280;41907;47.848;9.000;2023-05-14T03:29:47;95596.78;;;10.42;100.00
56038;BME280;41907;47.848;9.000;2023-05-14T03:32:12;95596.22;;;10.54;100.00
56038;BME280;41907;47.848;9.000;2023-05-14T03:34:37;95593.69;;;10.57;100.00
56038;BME280;41907;47.848;9.000;2023-05-14T03:37:03;95593.75;;;10.66;100.00
56038;BME280;41907;47.848;9.000;2023-05-14T03:39:28;95597.50;;;10.73;100.00
56038;BME280;41907;47.848;9.000;2023-05-14T03:41:53;95601.28;;;10.72;100.00
56038;BME280;41907;47.848;9.000;2023-05-14T03:44:21;95600.31;;;10.68;100.00
56038;BME280;41907;47.848;9.000;2023-05-14T03:46:46;95597.16;;;10.66;100.00
56038;BME280;41907;47.848;9.000;2023-05-14T03:49:11;95598.75;;;10.76;100.00
56038;BME280;41907;47.848;9.000;2023-05-14T03:51:36;95597.03;;;10.80;100.00
56038;BME280;41907;47.848;9.000;2023-05-14T03:54:01;95596.25;;;10.79;100.00
56038;BME280;41907;47.848;9.000;2023-05-14T03:56:27;95599.41;;;10.81;100.00
56038;BME280;41907;47.848;9.000;2023-05-14T03:58:52;95598.78;;;10.85;100.00
56038;BME280;41907;47.848;9.000;2023-05-14T04:01:17;95599.09;;;10.83;100.00
56038;BME280;41907;47.848;9.000;2023-05-14T04:03:42;95596.91;;;10.85;100.00
56038;BME280;41907;47.848;9.000;2023-05-14T04:06:08;95599.72;;;10.89;100.00
56038;BME280;41907;47.848;9.000;2023-05-14T04:08:33;95605.66;;;10.86;100.00
56038;BME280;41907;47.848;9.000;2023-05-14T04:10:58;95605.38;;;10.87;100.00
56038;BME280;41907;47.848;9.000;2023-05-14T04:13:23;95604.41;;;10.74;100.00
56038;BME280;41907;47.848;9.000;2023-05-14T04:15:48;95599.38;;;10.73;100.00
56038;BME280;41907;47.848;9.000;2023-05-14T04:18:14;95602.38;;;10.71;100.00
56038;BME280;41907;47.848;9.000;2023-05-14T04:20:39;95597.03;;;10.71;100.00
56038;BME280;41907;47.848;9.000;2023-05-14T04:23:05;95597.03;;;10.71;100.00
56038;BME280;41907;47.848;9.000;2023-05-14T04:25:30;95595.78;;;10.77;100.00
56038;BME280;41907;47.848;9.000;2023-05-14T04:27:55;95594.03;;;10.64;100.00
56038;BME280;41907;47.848;9.000;2023-05-14T04:30:20;95596.84;;;10.68;100.00
56038;BME280;41907;47.848;9.000;2023-05-14T04:32:46;95590.75;;;10.76;100.00
56038;BME280;41907;47.848;9.000;2023-05-14T04:35:11;95589.50;;;10.73;100.00
56038;BME280;41907;47.848;9.000;2023-05-14T04:37:37;95598.91;;;10.71;100.00
56038;BME280;41907;47.848;9.000;2023-05-14T04:40:03;95598.13;;;10.70;100.00
56038;BME280;41907;47.848;9.000;2023-05-14T04:42:28;95600.19;;;10.73;100.00
56038;BME280;41907;47.848;9.000;2023-05-14T04:44:53;95597.19;;;10.75;100.00
56038;BME280;41907;47.848;9.000;2023-05-14T04:47:18;95602.66;;;10.70;100.00
56038;BME280;41907;47.848;9.000;2023-05-14T04:49:45;95600.19;;;10.73;100.00
56038;BME280;41907;47.848;9.000;2023-05-14T04:52:10;95595.78;;;10.77;100.00
56038;BME280;41907;47.848;9.000;2023-05-14T04:54:35;95603.94;;;10.72;100.00
56038;BME280;41907;47.848;9.000;2023-05-14T04:57:00;95607.09;;;10.83;100.00
56038;BME280;41907;47.848;9.000;2023-05-14T04:59:27;95602.38;;;10.89;100.00
56038;BME280;41907;47.848;9.000;2023-05-14T05:01:52;95605.66;;;10.86;100.00
56038;BME280;41907;47.848;9.000;2023-05-14T05:04:18;95600.81;;;10.88;100.00
56038;BME280;41907;47.848;9.000;2023-05-14T05:06:43;95607.72;;;10.89;100.00
56038;BME280;41907;47.848;9.000;2023-05-14T05:09:08;95603.19;;;10.98;100.00
56038;BME280;41907;47.848;9.000;2023-05-14T05:11:33;95604.28;;;10.97;100.00
56038;BME280;41907;47.848;9.000;2023-05-14T05:13:59;95596.28;;;10.97;100.00
56038;BME280;41907;47.848;9.000;2023-05-14T05:16:24;95601.31;;;10.98;100.00
56038;BME280;41907;47.848;9.000;2023-05-14T05:18:49;95601.47;;;11.02;100.00
56038;BME280;41907;47.848;9.000;2023-05-14T05:21:15;95603.66;;;11.08;100.00
56038;BME280;41907;47.848;9.000;2023-05-14T05:23:40;95601.63;;;11.14;100.00
56038;BME280;41907;47.848;9.000;2023-05-14T05:26:05;95596.63;;;11.12;100.00
56038;BME280;41907;47.848;9.000;2023-05-14T05:28:30;95601.94;;;11.04;100.00
56038;BME280;41907;47.848;9.000;2023-05-14T05:30:56;95605.72;;;11.11;100.00
56038;BME280;41907;47.848;9.000;2023-05-14T05:33:21;95595.34;;;11.27;100.00
56038;BME280;41907;47.848;9.000;2023-05-14T05:35:46;95601.94;;;11.38;100.00
56038;BME280;41907;47.848;9.000;2023-05-14T05:38:12;95600.69;;;11.36;100.00
56038;BME280;41907;47.848;9.000;2023-05-14T05:40:39;95609.16;;;11.38;100.00
56038;BME280;41907;47.848;9.000;2023-05-14T05:43:04;95606.97;;;11.48;100.00
56038;BME280;41907;47.848;9.000;2023-05-14T05:45:30;95603.97;;;11.50;100.00
56038;BME280;41907;47.848;9.000;2023-05-14T05:47:55;95605.56;;;11.51;100.00
56038;BME280;41907;47.848;9.000;2023-05-14T05:50:20;95601.31;;;11.50;100.00
56038;BME280;41907;47.848;9.000;2023-05-14T05:52:46;95597.19;;;11.52;100.00
56038;BME280;41907;47.848;9.000;2023-05-14T05:55:11;95602.22;;;11.63;100.00
56038;BME280;41907;47.848;9.000;2023-05-14T05:57:37;95607.88;;;11.70;100.00
56038;BME280;41907;47.848;9.000;2023-05-14T06:00:02;95600.66;;;11.62;100.00
56038;BME280;41907;47.848;9.000;2023-05-14T06:02:36;95597.97;;;11.62;100.00
56038;BME280;41907;47.848;9.000;2023-05-14T06:05:02;95599.09;;;11.61;100.00
56038;BME280;41907;47.848;9.000;2023-05-14T06:07:27;95596.25;;;11.66;100.00
56038;BME280;41907;47.848;9.000;2023-05-14T06:09:52;95606.44;;;11.72;100.00
56038;BME280;41907;47.848;9.000;2023-05-14T06:12:17;95598.31;;;11.77;100.00
56038;BME280;41907;47.848;9.000;2023-05-14T06:14:43;95605.34;;;11.82;100.00
56038;BME280;41907;47.848;9.000;2023-05-14T06:17:08;95605.66;;;11.98;100.00
56038;BME280;41907;47.848;9.000;2023-05-14T06:19:33;95606.31;;;11.86;100.00
56038;BME280;41907;47.848;9.000;2023-05-14T06:21:58;95608.97;;;11.95;100.00
56038;BME280;41907;47.848;9.000;2023-05-14T06:24:24;95605.03;;;11.92;100.00
56038;BME280;41907;47.848;9.000;2023-05-14T06:26:49;95606.31;;;11.86;100.00
56038;BME280;41907;47.848;9.000;2023-05-14T06:29:14;95603.44;;;11.91;100.00
56038;BME280;41907;47.848;9.000;2023-05-14T06:31:39;95597.16;;;11.96;100.00
56038;BME280;41907;47.848;9.000;2023-05-14T06:34:04;95602.16;;;12.06;100.00
56038;BME280;41907;47.848;9.000;2023-05-14T06:36:30;95602.97;;;11.98;100.00
56038;BME280;41907;47.848;9.000;2023-05-14T06:38:55;95608.66;;;11.96;100.00
56038;BME280;41907;47.848;9.000;2023-05-14T06:41:20;95598.44;;;11.98;100.00
56038;BME280;41907;47.848;9.000;2023-05-14T06:43:45;95603.09;;;12.01;100.00
56038;BME280;41907;47.848;9.000;2023-05-14T06:46:11;95597.28;;;12.08;100.00
56038;BME280;41907;47.848;9.000;2023-05-14T06:48:36;95596.47;;;12.16;100.00
56038;BME280;41907;47.848;9.000;2023-05-14T06:51:01;95598.66;;;12.22;100.00
56038;BME280;41907;47.848;9.000;2023-05-14T06:53:27;95605.59;;;12.15;100.00
56038;BME280;41907;47.848;9.000;2023-05-14T06:55:52;95600.22;;;12.23;100.00
56038;BME280;41907;47.848;9.000;2023-05-14T06:58:17;95596.56;;;12.28;100.00
56038;BME280;41907;47.848;9.000;2023-05-14T07:00:43;95603.44;;;12.38;100.00
56038;BME280;41907;47.848;9.000;2023-05-14T07:03:08;95597.78;;;12.39;100.00
56038;BME280;41907;47.848;9.000;2023-05-14T07:05:33;95599.88;;;12.34;100.00
56038;BME280;41907;47.848;9.000;2023-05-14T07:07:58;95598.91;;;12.29;100.00
56038;BME280;41907;47.848;9.000;2023-05-14T07:10:23;95603.75;;;12.36;100.00
56038;BME280;41907;47.848;9.000;2023-05-14T07:12:49;95600.38;;;12.18;100.00
56038;BME280;41907;47.848;9.000;2023-05-14T07:15:14;95602.44;;;12.13;100.00
56038;BME280;41907;47.848;9.000;2023-05-14T07:17:39;95601.59;;;12.29;100.00
56038;BME280;41907;47.848;9.000;2023-05-14T07:20:05;95605.84;;;12.30;100.00
56038;BME280;41907;47.848;9.000;2023-05-14T07:22:30;95609.72;;;12.42;100.00
56038;BME280;41907;47.848;9.000;2023-05-14T07:24:55;95596.94;;;12.47;100.00
56038;BME280;41907;47.848;9.000;2023-05-14T07:27:21;95592.59;;;12.43;100.00
56038;BME280;41907;47.848;9.000;2023-05-14T07:29:46;95595.81;;;12.57;100.00
56038;BME280;41907;47.848;9.000;2023-05-14T07:32:11;95597.84;;;12.60;100.00
56038;BME280;41907;47.848;9.000;2023-05-14T07:34:36;95605.50;;;12.70;100.00
56038;BME280;41907;47.848;9.000;2023-05-14T07:37:02;95596.16;;;12.76;100.00
56038;BME280;41907;47.848;9.000;2023-05-14T07:39:27;95586.28;;;12.97;100.00
56038;BME280;41907;47.848;9.000;2023-05-14T07:41:52;95592.16;;;12.91;100.00
56038;BME280;41907;47.848;9.000;2023-05-14T07:44:20;95593.38;;;12.93;100.00
56038;BME280;41907;47.848;9.000;2023-05-14T07:46:46;95597.25;;;13.04;100.00
56038;BME280;41907;47.848;9.000;2023-05-14T07:49:11;95590.03;;;13.26;100.00
56038;BME280;41907;47.848;9.000;2023-05-14T07:51:36;95591.38;;;13.32;100.00
56038;BME280;41907;47.848;9.000;2023-05-14T07:54:02;95589.72;;;13.27;100.00
56038;BME280;41907;47.848;9.000;2023-05-14T07:56:27;95584.59;;;13.14;100.00
56038;BME280;41907;47.848;9.000;2023-05-14T07:58:52;95589.06;;;13.30;100.00
56038;BME280;41907;47.848;9.000;2023-05-14T08:01:17;95586.25;;;13.27;100.00
56038;BME280;41907;47.848;9.000;2023-05-14T08:03:43;95582.84;;;13.18;100.00
56038;BME280;41907;47.848;9.000;2023-05-14T08:06:08;95587.00;;;13.07;100.00
56038;BME280;41907;47.848;9.000;2023-05-14T08:08:34;95583.06;;;13.04;100.00
56038;BME280;41907;47.848;9.000;2023-05-14T08:11:00;95591.66;;;13.18;100.00
56038;BME280;41907;47.848;9.000;2023-05-14T08:13:26;95573.56;;;13.36;100.00
56038;BME280;41907;47.848;9.000;2023-05-14T08:15:51;95582.63;;;13.44;100.00
56038;BME280;41907;47.848;9.000;2023-05-14T08:18:16;95575.63;;;13.51;100.00
56038;BME280;41907;47.848;9.000;2023-05-14T08:20:41;95579.69;;;13.57;100.00
56038;BME280;41907;47.848;9.000;2023-05-14T08:23:07;95578.03;;;13.65;100.00
56038;BME280;41907;47.848;9.000;2023-05-14T08:25:33;95583.25;;;13.61;100.00
56038;BME280;41907;47.848;9.000;2023-05-14T08:27:58;95576.78;;;13.62;100.00
56038;BME280;41907;47.848;9.000;2023-05-14T08:30:24;95572.53;;;13.94;100.00
56038;BME280;41907;47.848;9.000;2023-05-14T08:32:49;95576.41;;;13.85;100.00
56038;BME280;41907;47.848;9.000;2023-05-14T08:35:15;95574.31;;;14.02;100.00
56038;BME280;41907;47.848;9.000;2023-05-14T08:37:40;95579.00;;;13.93;100.00
56038;BME280;41907;47.848;9.000;2023-05-14T08:40:06;95577.63;;;13.87;100.00
56038;BME280;41907;47.848;9.000;2023-05-14T08:42:32;95583.44;;;13.77;100.00
56038;BME280;41907;47.848;9.000;2023-05-14T08:45:02;95575.81;;;13.79;100.00
56038;BME280;41907;47.848;9.000;2023-05-14T08:47:28;95582.88;;;13.84;100.00
56038;BME280;41907;47.848;9.000;2023-05-14T08:50:00;95582.00;;;13.92;100.00
56038;BME280;41907;47.848;9.000;2023-05-14T08:52:28;95586.41;;;13.63;100.00
56038;BME280;41907;47.848;9.000;2023-05-14T08:54:53;95580.97;;;13.51;100.00
56038;BME280;41907;47.848;9.000;2023-05-14T08:57:19;95588.22;;;13.51;100.00
56038;BME280;41907;47.848;9.000;2023-05-14T08:59:47;95577.34;;;13.35;100.00
56038;BME280;41907;47.848;9.000;2023-05-14T09:02:13;95575.59;;;13.39;100.00
56038;BME280;41907;47.848;9.000;2023-05-14T09:04:38;95576.63;;;13.47;100.00
56038;BME280;41907;47.848;9.000;2023-05-14T09:07:05;95581.31;;;13.50;100.00
56038;BME280;41907;47.848;9.000;2023-05-14T09:09:31;95582.69;;;13.56;100.00
56038;BME280;41907;47.848;9.000;2023-05-14T09:11:56;95575.72;;;13.88;100.00
56038;BME280;41907;47.848;9.000;2023-05-14T09:14:22;95576.50;;;13.76;100.00
56038;BME280;41907;47.848;9.000;2023-05-14T09:16:48;95578.34;;;13.63;100.00
56038;BME280;41907;47.848;9.000;2023-05-14T09:19:14;95560.06;;;13.65;100.00
56038;BME280;41907;47.848;9.000;2023-05-14T09:21:40;95567.72;;;14.00;100.00
56038;BME280;41907;47.848;9.000;2023-05-14T09:24:05;95569.38;;;13.92;100.00
56038;BME280;41907;47.848;9.000;2023-05-14T09:26:31;95564.22;;;13.75;100.00
56038;BME280;41907;47.848;9.000;2023-05-14T09:28:57;95569.16;;;13.97;100.00
56038;BME280;41907;47.848;9.000;2023-05-14T09:31:29;95566.34;;;13.82;100.00
56038;BME280;41907;47.848;9.000;2023-05-14T09:33:55;95567.63;;;13.96;100.00
56038;BME280;41907;47.848;9.000;2023-05-14T09:36:20;95567.31;;;14.22;100.00
56038;BME280;41907;47.848;9.000;2023-05-14T09:38:45;95555.28;;;14.52;99.53
56038;BME280;41907;47.848;9.000;2023-05-14T09:41:11;95556.72;;;15.14;98.04
56038;BME280;41907;47.848;9.000;2023-05-14T09:43:36;95555.84;;;15.38;93.85
56038;BME280;41907;47.848;9.000;2023-05-14T09:46:01;95558.31;;;15.71;90.29
56038;BME280;41907;47.848;9.000;2023-05-14T09:48:27;95557.03;;;15.81;90.73
56038;BME280;41907;47.848;9.000;2023-05-14T09:50:52;95549.53;;;16.18;90.45
56038;BME280;41907;47.848;9.000;2023-05-14T09:53:17;95549.94;;;16.35;86.13
56038;BME280;41907;47.848;9.000;2023-05-14T09:55:43;95544.22;;;17.03;82.23
56038;BME280;41907;47.848;9.000;2023-05-14T09:58:08;95543.66;;;17.33;80.33
56038;BME280;41907;47.848;9.000;2023-05-14T10:00:34;95544.50;;;17.75;77.67
56038;BME280;41907;47.848;9.000;2023-05-14T10:03:02;95540.09;;;17.87;77.38
56038;BME280;41907;47.848;9.000;2023-05-14T10:05:29;95548.34;;;17.74;77.52
56038;BME280;41907;47.848;9.000;2023-05-14T10:07:56;95539.06;;;17.53;76.80
56038;BME280;41907;47.848;9.000;2023-05-14T10:10:23;95543.16;;;17.27;79.24
56038;BME280;41907;47.848;9.000;2023-05-14T10:12:54;95538.72;;;17.35;77.35
56038;BME280;41907;47.848;9.000;2023-05-14T10:15:22;95532.03;;;17.48;80.36
56038;BME280;41907;47.848;9.000;2023-05-14T10:17:53;95522.03;;;18.13;74.01
56038;BME280;41907;47.848;9.000;2023-05-14T10:20:19;95534.56;;;17.60;74.06
56038;BME280;41907;47.848;9.000;2023-05-14T10:22:46;95532.66;;;17.80;72.46
56038;BME280;41907;47.848;9.000;2023-05-14T10:25:12;95527.44;;;18.13;74.01
56038;BME280;41907;47.848;9.000;2023-05-14T10:27:37;95523.47;;;17.84;73.53
56038;BME280;41907;47.848;9.000;2023-05-14T10:30:04;95532.88;;;17.33;74.03
56038;BME280;41907;47.848;9.000;2023-05-14T10:32:30;95532.22;;;17.01;74.88
56038;BME280;41907;47.848;9.000;2023-05-14T10:34:56;95533.38;;;16.65;80.56
56038;BME280;41907;47.848;9.000;2023-05-14T10:37:23;95529.09;;;16.64;80.86
56038;BME280;41907;47.848;9.000;2023-05-14T10:42:18;95526.88;;;16.03;81.86
56038;BME280;41907;47.848;9.000;2023-05-14T10:47:13;95529.13;;;16.01;82.90
56038;BME280;41907;47.848;9.000;2023-05-14T10:49:38;95539.63;;;16.37;81.92
56038;BME280;41907;47.848;9.000;2023-05-14T10:52:06;95529.00;;;16.60;78.81
56038;BME280;41907;47.848;9.000;2023-05-14T10:54:33;95523.50;;;16.88;79.20
56038;BME280;41907;47.848;9.000;2023-05-14T10:56:59;95513.88;;;17.26;75.32
56038;BME280;41907;47.848;9.000;2023-05-14T10:59:27;95518.38;;;17.60;73.74
56038;BME280;41907;47.848;9.000;2023-05-14T11:01:53;95506.16;;;18.08;73.52
56038;BME280;41907;47.848;9.000;2023-05-14T11:04:18;95499.75;;;18.66;70.71
56038;BME280;41907;47.848;9.000;2023-05-14T11:06:44;95498.28;;;18.72;71.76
56038;BME280;41907;47.848;9.000;2023-05-14T11:09:11;95504.88;;;18.48;67.54
56038;BME280;41907;47.848;9.000;2023-05-14T11:11:37;95504.13;;;17.79;71.52
56038;BME280;41907;47.848;9.000;2023-05-14T11:14:02;95501.59;;;17.09;74.48
56038;BME280;41907;47.848;9.000;2023-05-14T11:16:27;95501.22;;;16.91;74.39
56038;BME280;41907;47.848;9.000;2023-05-14T11:19:01;95501.75;;;16.62;75.02
56038;BME280;41907;47.848;9.000;2023-05-14T11:21:27;95501.56;;;16.55;78.28
56038;BME280;41907;47.848;9.000;2023-05-14T11:23:53;95499.38;;;16.76;75.59
56038;BME280;41907;47.848;9.000;2023-05-14T11:26:18;95500.50;;;16.75;75.11
56038;BME280;41907;47.848;9.000;2023-05-14T11:28:44;95501.75;;;16.46;76.72
56038;BME280;41907;47.848;9.000;2023-05-14T11:31:10;95493.44;;;16.51;77.80
56038;BME280;41907;47.848;9.000;2023-05-14T11:33:35;95492.41;;;16.40;74.93
56038;BME280;41907;47.848;9.000;2023-05-14T11:36:01;95491.56;;;16.55;74.80
56038;BME280;41907;47.848;9.000;2023-05-14T11:38:26;95493.84;;;16.69;74.84
56038;BME280;41907;47.848;9.000;2023-05-14T11:40:51;95488.88;;;16.71;75.22
56038;BME280;41907;47.848;9.000;2023-05-14T11:43:18;95484.06;;;16.80;74.47
56038;BME280;41907;47.848;9.000;2023-05-14T11:45:43;95486.38;;;16.97;76.02
56038;BME280;41907;47.848;9.000;2023-05-14T11:48:13;95474.50;;;17.21;74.90
56038;BME280;41907;47.848;9.000;2023-05-14T11:50:51;95469.06;;;17.79;73.86
56038;BME280;41907;47.848;9.000;2023-05-14T11:53:17;95464.63;;;17.90;73.58
56038;BME280;41907;47.848;9.000;2023-05-14T11:55:43;95460.75;;;18.14;68.53
56038;BME280;41907;47.848;9.000;2023-05-14T11:58:08;95471.78;;;18.05;68.73
56038;BME280;41907;47.848;9.000;2023-05-14T12:00:34;95477.00;;;18.17;69.82
56038;BME280;41907;47.848;9.000;2023-05-14T12:02:59;95467.38;;;17.71;69.74
56038;BME280;41907;47.848;9.000;2023-05-14T12:05:24;95464.69;;;17.52;68.41
56038;BME280;41907;47.848;9.000;2023-05-14T12:07:50;95457.50;;;17.59;69.87
56038;BME280;41907;47.848;9.000;2023-05-14T12:10:15;95454.91;;;17.63;69.64
56038;BME280;41907;47.848;9.000;2023-05-14T12:12:43;95446.94;;;17.70;68.86
56038;BME280;41907;47.848;9.000;2023-05-14T12:15:09;95457.06;;;17.76;69.91
56038;BME280;41907;47.848;9.000;2023-05-14T12:17:36;95446.53;;;17.48;69.90
56038;BME280;41907;47.848;9.000;2023-05-14T12:20:01;95456.09;;;17.46;71.67
56038;BME280;41907;47.848;9.000;2023-05-14T12:22:27;95456.91;;;17.27;68.79
56038;BME280;41907;47.848;9.000;2023-05-14T12:24:53;95454.13;;;17.43;69.35
56038;BME280;41907;47.848;9.000;2023-05-14T12:27:20;95448.72;;;17.85;70.96
56038;BME280;41907;47.848;9.000;2023-05-14T12:29:46;95444.09;;;17.85;67.02
56038;BME280;41907;47.848;9.000;2023-05-14T12:32:11;95448.50;;;17.52;66.79
56038;BME280;41907;47.848;9.000;2023-05-14T12:34:36;95442.44;;;17.58;69.28
56038;BME280;41907;47.848;9.000;2023-05-14T12:37:02;95439.91;;;17.23;69.11
56038;BME280;41907;47.848;9.000;2023-05-14T12:39:29;95440.31;;;17.44;70.92
56038;BME280;41907;47.848;9.000;2023-05-14T12:41:54;95439.81;;;17.62;67.63
56038;BME280;41907;47.848;9.000;2023-05-14T12:44:20;95427.38;;;17.76;68.12
56038;BME280;41907;47.848;9.000;2023-05-14T12:46:46;95422.88;;;17.84;67.44
56038;BME280;41907;47.848;9.000;2023-05-14T12:49:11;95421.88;;;17.69;67.62
56038;BME280;41907;47.848;9.000;2023-05-14T12:51:37;95418.78;;;17.48;67.16
56038;BME280;41907;47.848;9.000;2023-05-14T12:54:02;95416.41;;;17.66;68.94